createdAt,value
2022-09-04T00:00:51.805Z,6.85
2022-09-04T00:03:28.547Z,7.88
2022-09-04T00:06:05.421Z,7.15
2022-09-04T00:08:52.164Z,7.32
2022-09-04T00:11:51.054Z,7.05
2022-09-04T00:14:38.183Z,5.63
2022-09-04T00:17:25.074Z,7.07
2022-09-04T00:20:01.875Z,6.20
2022-09-04T00:22:50.701Z,6.93
2022-09-04T00:25:21.302Z,7.07
2022-09-04T00:27:53.816Z,7.03
2022-09-04T00:30:22.291Z,6.85
2022-09-04T00:33:05.743Z,5.90
2022-09-04T00:35:44.808Z,6.10
2022-09-04T00:38:22.631Z,6.35
2022-09-04T00:41:31.060Z,6.60
2022-09-04T00:44:59.444Z,6.10
2022-09-04T00:48:07.369Z,6.80
2022-09-04T00:50:46.537Z,7.05
2022-09-04T00:53:44.548Z,6.90
2022-09-04T00:56:53.202Z,6.47
2022-09-04T00:59:57.682Z,6.55
2022-09-04T01:02:46.509Z,6.85
2022-09-04T01:05:33.413Z,6.55
2022-09-04T01:08:44.982Z,7.32
2022-09-04T01:11:41.505Z,7.32
2022-09-04T01:17:41.109Z,7.63
2022-09-04T01:20:47.036Z,8.55
2022-09-04T01:23:38.232Z,8.35
2022-09-04T01:26:28.107Z,8.15
2022-09-04T01:29:45.946Z,7.20
2022-09-04T01:32:31.654Z,7.55
2022-09-04T01:35:19.957Z,8.38
2022-09-04T01:38:18.034Z,11.10
2022-09-04T01:40:48.710Z,9.73
2022-09-04T01:43:18.637Z,9.90
2022-09-04T01:46:44.048Z,9.77
2022-09-04T01:49:48.112Z,8.23
2022-09-04T01:52:41.056Z,8.23
2022-09-04T01:55:34.243Z,8.60
2022-09-04T01:58:29.417Z,8.45
2022-09-04T02:01:35.693Z,7.43
2022-09-04T02:04:39.317Z,6.93
2022-09-04T02:07:33.642Z,6.95
2022-09-04T02:10:29.123Z,5.65
2022-09-04T02:13:08.047Z,4.45
2022-09-04T02:19:28.565Z,5.43
2022-09-04T02:22:24.929Z,6.30
2022-09-04T02:25:16.603Z,7.18
2022-09-04T02:28:06.460Z,5.90
2022-09-04T02:30:59.821Z,5.95
2022-09-04T02:33:52.684Z,5.88
2022-09-04T02:36:34.858Z,4.63
2022-09-04T02:39:11.537Z,6.50
2022-09-04T02:42:19.685Z,6.10
2022-09-04T02:45:08.101Z,4.45
2022-09-04T02:57:55.206Z,3.33
2022-09-04T03:00:43.342Z,3.30
2022-09-04T03:03:21.285Z,3.58
2022-09-04T03:06:03.443Z,4.03
2022-09-04T03:09:02.002Z,4.80
2022-09-04T03:11:55.250Z,4.20
2022-09-04T03:14:35.309Z,4.43
2022-09-04T03:17:13.440Z,5.00
2022-09-04T03:19:50.636Z,6.72
2022-09-04T03:22:42.768Z,6.00
2022-09-04T03:25:32.825Z,7.63
2022-09-04T03:28:00.561Z,6.78
2022-09-04T03:30:32.128Z,5.50
2022-09-04T03:33:12.760Z,5.13
2022-09-04T03:36:23.155Z,5.53
2022-09-04T03:39:04.677Z,6.75
2022-09-04T03:41:38.628Z,6.18
2022-09-04T03:44:45.570Z,5.60
2022-09-04T03:48:04.242Z,6.55
2022-09-04T03:50:42.551Z,5.15
2022-09-04T03:53:41.546Z,6.43
2022-09-04T03:56:49.815Z,5.40
2022-09-04T03:59:52.364Z,5.00
2022-09-04T04:03:01.479Z,4.32
2022-09-04T04:05:44.049Z,4.35
2022-09-04T04:08:56.675Z,3.95
2022-09-04T04:12:13.295Z,4.15
2022-09-04T04:15:21.401Z,3.38
2022-09-04T04:54:57.953Z,5.00
2022-09-04T04:57:40.318Z,4.72
2022-09-04T05:00:26.839Z,4.32
2022-09-04T05:03:32.342Z,4.25
2022-09-04T05:06:10.212Z,4.07
2022-09-04T05:09:09.622Z,3.60
2022-09-04T05:12:20.606Z,4.00
2022-09-04T05:15:03.318Z,3.95
2022-09-04T05:18:07.451Z,3.55
2022-09-04T05:21:38.811Z,4.10
2022-09-04T05:24:13.417Z,3.30
2022-09-04T05:26:54.867Z,2.97
2022-09-04T05:29:51.443Z,2.55
2022-09-04T06:33:22.576Z,1.70
2022-09-04T06:36:14.410Z,2.13
2022-09-04T06:39:22.851Z,1.83
2022-09-04T06:42:11.567Z,1.92
2022-09-04T06:45:20.966Z,1.77
2022-09-04T06:48:34.220Z,1.80
2022-09-04T06:51:32.322Z,2.00
2022-09-04T06:54:13.886Z,2.10
2022-09-04T06:57:23.814Z,1.48
2022-09-04T07:00:12.042Z,1.60
2022-09-04T07:03:20.870Z,1.70
2022-09-04T07:06:05.122Z,2.10
2022-09-04T07:08:58.005Z,1.98
2022-09-04T07:11:56.771Z,1.92
2022-09-04T07:14:53.461Z,1.63
2022-09-04T07:18:01.163Z,1.95
2022-09-04T07:21:07.692Z,1.98
2022-09-04T07:24:34.659Z,1.80
2022-09-04T07:27:53.833Z,2.33
2022-09-04T07:30:22.687Z,2.10
2022-09-04T07:32:56.772Z,2.90
2022-09-04T07:35:45.304Z,2.63
2022-09-04T07:41:36.297Z,2.72
2022-09-04T07:45:00.801Z,2.95
2022-09-04T07:47:35.061Z,3.00
2022-09-04T07:50:21.225Z,3.00
2022-09-04T07:53:35.651Z,2.80
2022-09-04T07:59:59.205Z,3.30
2022-09-04T08:02:38.550Z,3.55
2022-09-04T08:05:24.658Z,3.97
2022-09-04T08:08:53.427Z,3.33
2022-09-04T08:11:45.475Z,3.42
2022-09-04T08:15:04.600Z,3.70
2022-09-04T08:18:14.721Z,3.53
2022-09-04T08:21:27.313Z,3.40
2022-09-04T08:24:12.205Z,4.13
2022-09-04T08:27:15.386Z,3.95
2022-09-04T08:29:53.793Z,4.07
2022-09-04T08:32:51.271Z,4.38
2022-09-04T08:36:12.170Z,4.55
2022-09-04T08:39:07.357Z,4.10
2022-09-04T08:42:21.801Z,4.25
2022-09-04T08:45:28.980Z,3.70
2022-09-04T08:48:42.042Z,3.50
2022-09-04T08:54:35.223Z,3.38
2022-09-04T09:00:21.712Z,3.65
2022-09-04T09:03:34.457Z,3.28
2022-09-04T09:09:43.467Z,3.50
2022-09-04T09:22:26.622Z,3.60
2022-09-04T09:25:20.829Z,3.42
2022-09-04T09:28:25.107Z,3.92
2022-09-04T09:31:38.288Z,3.50
2022-09-04T09:34:52.159Z,4.10
2022-09-04T09:38:12.315Z,4.30
2022-09-04T09:41:39.672Z,3.90
2022-09-04T09:47:57.582Z,3.40
2022-09-04T09:51:00.700Z,3.83
2022-09-04T09:54:09.253Z,4.30
2022-09-04T09:57:29.671Z,3.63
2022-09-04T10:00:17.260Z,3.17
2022-09-04T10:03:20.696Z,3.38
2022-09-04T10:06:24.344Z,3.50
2022-09-04T10:09:29.857Z,3.30
2022-09-04T10:12:33.997Z,3.47
2022-09-04T10:15:48.394Z,3.65
2022-09-04T10:18:36.574Z,3.30
2022-09-04T10:21:55.247Z,2.50
2022-09-04T10:25:06.399Z,2.15
2022-09-04T10:27:43.662Z,2.15
2022-09-04T10:30:17.193Z,2.40
2022-09-04T10:33:42.410Z,1.80
2022-09-04T10:36:22.722Z,2.63
2022-09-04T10:39:46.139Z,2.45
2022-09-04T10:43:17.622Z,1.80
2022-09-04T11:02:27.299Z,1.95
2022-09-04T11:09:03.246Z,1.75
2022-09-04T11:22:02.734Z,1.75
2022-09-04T11:28:01.982Z,1.77
2022-09-04T11:30:55.689Z,2.10
2022-09-04T12:31:13.032Z,1.40
2022-09-04T12:34:09.902Z,1.50
2022-09-04T13:15:45.923Z,1.50
2022-09-04T13:25:28.731Z,1.67
2022-09-04T13:28:16.963Z,1.67
2022-09-04T13:31:00.094Z,1.50
2022-09-04T13:33:51.256Z,1.70
2022-09-04T13:40:30.070Z,2.05
2022-09-04T13:43:14.454Z,2.20
2022-09-04T13:45:45.595Z,1.75
2022-09-04T13:48:20.068Z,1.90
2022-09-04T13:50:55.689Z,2.15
2022-09-04T13:53:35.978Z,1.95
2022-09-04T13:56:12.871Z,1.65
2022-09-04T13:58:49.600Z,2.22
2022-09-04T14:01:21.770Z,2.15
2022-09-04T14:04:04.451Z,2.17
2022-09-04T14:06:34.719Z,2.38
2022-09-04T14:09:06.008Z,2.33
2022-09-04T14:11:58.395Z,2.40
2022-09-04T14:15:13.625Z,2.03
2022-09-04T14:18:23.258Z,2.15
2022-09-04T14:21:01.278Z,1.55
2022-09-04T14:24:32.979Z,1.88
2022-09-04T14:27:21.257Z,2.03
2022-09-04T14:30:19.037Z,2.08
2022-09-04T14:33:34.734Z,1.60
2022-09-04T14:36:35.598Z,2.00
2022-09-04T14:39:20.627Z,1.65
2022-09-04T14:42:30.738Z,2.00
2022-09-04T14:45:26.284Z,2.33
2022-09-04T14:47:58.938Z,1.98
2022-09-04T14:50:30.271Z,2.20
2022-09-04T14:53:04.597Z,1.53
2022-09-04T14:55:34.132Z,2.10
2022-09-04T14:58:23.386Z,1.55
2022-09-04T15:01:01.096Z,1.83
2022-09-04T15:03:51.055Z,1.70
2022-09-04T15:06:32.533Z,1.27
2022-09-04T15:09:35.087Z,1.70
2022-09-04T15:12:34.284Z,1.52
2022-09-04T15:15:32.203Z,1.80
2022-09-04T15:18:10.979Z,1.20
2022-09-04T15:20:53.779Z,1.20
2022-09-04T15:23:30.905Z,1.30
2022-09-04T15:26:09.626Z,1.48
2022-09-04T15:28:48.670Z,1.42
2022-09-04T15:31:43.041Z,1.40
2022-09-04T15:34:21.174Z,1.80
2022-09-04T15:36:48.734Z,1.90
2022-09-04T15:39:31.977Z,1.30
2022-09-04T15:42:00.035Z,1.17
2022-09-04T15:44:38.948Z,1.40
2022-09-04T15:47:54.810Z,1.17
2022-09-04T15:50:27.741Z,1.70
2022-09-04T15:53:13.000Z,1.17
2022-09-04T15:55:42.708Z,1.10
2022-09-04T15:58:53.140Z,1.70
2022-09-04T16:01:28.439Z,1.13
2022-09-04T16:04:26.339Z,1.10
2022-09-04T16:07:02.426Z,1.50
2022-09-04T16:09:53.179Z,1.35
2022-09-04T16:12:51.285Z,0.93
2022-09-04T16:15:24.912Z,0.90
2022-09-04T16:17:54.680Z,0.93
2022-09-04T16:20:39.426Z,1.23
2022-09-04T16:23:09.849Z,1.10
2022-09-04T16:25:43.588Z,1.00
2022-09-04T16:28:34.673Z,1.30
2022-09-04T16:31:03.932Z,1.20
2022-09-04T16:33:53.355Z,1.52
2022-09-04T16:36:40.653Z,1.48
2022-09-04T16:39:14.239Z,2.40
2022-09-04T16:41:56.860Z,2.20
2022-09-04T16:44:33.063Z,2.75
2022-09-04T16:47:10.469Z,3.13
2022-09-04T16:49:49.379Z,2.85
2022-09-04T16:53:14.781Z,3.05
2022-09-04T16:55:58.445Z,3.20
2022-09-04T16:58:46.076Z,3.55
2022-09-04T17:01:22.855Z,3.25
2022-09-04T17:04:13.342Z,3.58
2022-09-04T17:07:05.197Z,4.55
2022-09-04T17:10:01.952Z,3.80
2022-09-04T17:12:53.357Z,4.00
2022-09-04T17:15:38.441Z,4.05
2022-09-04T17:18:11.942Z,3.92
2022-09-04T17:22:43.368Z,3.90
2022-09-04T17:29:00.495Z,4.00
2022-09-04T17:29:18.569Z,3.90
2022-09-04T17:29:51.761Z,4.13
2022-09-04T17:34:14.646Z,4.28
2022-09-04T17:40:36.000Z,4.18
2022-09-04T17:40:48.033Z,4.93
2022-09-04T17:41:55.946Z,4.47
2022-09-04T17:45:03.718Z,4.10
2022-09-04T17:48:01.982Z,4.38
2022-09-04T17:50:29.328Z,4.38
2022-09-04T17:53:05.099Z,4.82
2022-09-04T17:55:47.699Z,5.35
2022-09-04T17:58:26.413Z,4.82
2022-09-04T18:01:15.392Z,3.72
2022-09-04T18:04:32.203Z,4.70
2022-09-04T18:07:50.954Z,5.00
2022-09-04T18:10:31.383Z,4.80
2022-09-04T18:13:36.664Z,4.32
2022-09-04T18:17:12.204Z,4.82
2022-09-04T18:19:46.797Z,4.78
2022-09-04T18:22:59.629Z,5.00
2022-09-04T18:25:53.864Z,4.57
2022-09-04T18:28:33.683Z,5.05
2022-09-04T18:37:06.526Z,3.97
2022-09-04T18:37:16.432Z,3.65
2022-09-04T18:37:55.569Z,3.58
2022-09-04T18:44:47.930Z,3.45
2022-09-04T18:50:28.538Z,2.72
2022-09-04T18:50:37.749Z,2.58
2022-09-04T18:50:39.646Z,2.75
2022-09-04T18:52:18.973Z,2.90
2022-09-04T18:54:50.932Z,2.85
2022-09-04T18:57:49.057Z,3.17
2022-09-04T19:01:11.315Z,3.03
2022-09-04T19:03:45.784Z,2.50
2022-09-04T19:06:27.889Z,2.70
2022-09-04T19:08:58.819Z,2.63
2022-09-04T19:11:31.795Z,3.47
2022-09-04T19:14:10.510Z,2.45
2022-09-04T19:16:43.898Z,2.63
2022-09-04T19:19:51.414Z,2.80
2022-09-04T19:22:51.456Z,2.45
2022-09-04T19:25:25.166Z,2.92
2022-09-04T19:28:52.358Z,3.05
2022-09-04T19:31:33.160Z,2.63
2022-09-04T19:34:10.783Z,2.40
2022-09-04T19:36:54.041Z,2.30
2022-09-04T19:45:55.414Z,3.20
2022-09-04T19:46:07.642Z,2.30
2022-09-04T19:46:14.941Z,2.63
2022-09-04T19:49:45.136Z,2.63
2022-09-04T19:53:24.424Z,2.45
2022-09-04T19:54:59.965Z,2.40
2022-09-04T19:58:00.558Z,2.58
2022-09-04T20:00:42.737Z,2.90
2022-09-04T20:03:33.064Z,2.97
2022-09-04T20:06:21.104Z,3.45
2022-09-04T20:09:14.321Z,2.72
2022-09-04T20:11:47.961Z,2.30
2022-09-04T20:14:40.007Z,2.78
2022-09-04T20:17:33.393Z,2.45
2022-09-04T20:20:06.499Z,2.72
2022-09-04T20:22:48.220Z,2.67
2022-09-04T20:32:08.497Z,2.95
2022-09-04T20:35:13.541Z,3.28
2022-09-04T20:37:53.748Z,3.50
2022-09-04T20:40:59.908Z,2.70
2022-09-04T20:52:49.026Z,2.97
2022-09-04T20:52:50.301Z,3.20
2022-09-04T20:53:09.583Z,2.75
2022-09-04T20:56:17.093Z,3.17
2022-09-04T21:03:05.537Z,3.25
2022-09-04T21:03:20.866Z,2.92
2022-09-04T21:05:22.676Z,2.75
2022-09-04T21:08:19.891Z,2.67
2022-09-04T21:10:55.712Z,3.08
2022-09-04T21:13:28.493Z,2.50
2022-09-04T21:16:11.609Z,2.75
2022-09-04T21:19:29.748Z,3.10
2022-09-04T21:22:33.968Z,2.60
2022-09-04T21:25:33.087Z,2.63
2022-09-04T21:28:41.678Z,2.67
2022-09-04T21:31:47.283Z,2.70
2022-09-04T21:35:06.346Z,2.72
2022-09-04T21:38:17.378Z,4.38
2022-09-04T21:41:21.765Z,3.45
2022-09-04T21:44:14.665Z,3.75
2022-09-04T21:47:24.546Z,3.00
2022-09-04T21:50:36.245Z,3.20
2022-09-04T22:13:27.143Z,2.17
2022-09-04T22:13:46.007Z,2.92
2022-09-04T22:15:05.754Z,2.90
2022-09-04T22:20:57.670Z,2.60
2022-09-04T22:23:59.774Z,3.13
2022-09-04T22:26:50.421Z,2.80
2022-09-04T22:29:39.814Z,3.05
2022-09-04T22:32:27.714Z,2.78
2022-09-04T22:35:46.348Z,3.08
2022-09-04T22:38:54.122Z,2.95
2022-09-04T22:42:05.600Z,2.80
2022-09-04T22:44:40.964Z,2.65
2022-09-04T23:13:57.109Z,2.20
2022-09-04T23:16:01.667Z,2.78
2022-09-04T23:23:20.060Z,3.28
2022-09-04T23:26:38.495Z,2.75
2022-09-04T23:26:50.537Z,2.78
2022-09-04T23:29:15.933Z,2.90
2022-09-04T23:32:16.563Z,3.03
2022-09-04T23:35:14.728Z,3.15
2022-09-04T23:38:21.277Z,2.67
2022-09-04T23:41:21.912Z,3.70
